sensor_id;sensor_type;location;lat;lon;timestamp;P1;durP1;ratioP1;P2;durP2;ratioP2
72060;SDS011;59925;52.136;5.420;2023-11-19T00:00:52;11.38;;;3.45;;
72060;SDS011;59925;52.136;5.420;2023-11-19T00:03:19;13.77;;;3.85;;
72060;SDS011;59925;52.136;5.420;2023-11-19T00:05:46;11.15;;;3.50;;
72060;SDS011;59925;52.136;5.420;2023-11-19T00:08:13;18.10;;;4.10;;
72060;SDS011;59925;52.136;5.420;2023-11-19T00:10:39;10.82;;;3.80;;
72060;SDS011;59925;52.136;5.420;2023-11-19T00:13:06;16.45;;;3.70;;
72060;SDS011;59925;52.136;5.420;2023-11-19T00:15:33;15.05;;;3.50;;
72060;SDS011;59925;52.136;5.420;2023-11-19T00:18:00;13.07;;;3.47;;
72060;SDS011;59925;52.136;5.420;2023-11-19T00:20:30;14.27;;;2.90;;
72060;SDS011;59925;52.136;5.420;2023-11-19T00:22:57;12.02;;;3.03;;
72060;SDS011;59925;52.136;5.420;2023-11-19T00:25:24;10.82;;;3.05;;
72060;SDS011;59925;52.136;5.420;2023-11-19T00:27:51;12.68;;;2.90;;
72060;SDS011;59925;52.136;5.420;2023-11-19T00:30:20;13.70;;;2.72;;
72060;SDS011;59925;52.136;5.420;2023-11-19T00:32:47;13.40;;;2.33;;
72060;SDS011;59925;52.136;5.420;2023-11-19T00:35:13;9.55;;;2.60;;
72060;SDS011;59925;52.136;5.420;2023-11-19T00:37:42;11.07;;;3.17;;
72060;SDS011;59925;52.136;5.420;2023-11-19T00:40:09;19.05;;;2.97;;
72060;SDS011;59925;52.136;5.420;2023-11-19T00:42:37;10.43;;;2.38;;
72060;SDS011;59925;52.136;5.420;2023-11-19T00:45:04;17.47;;;3.17;;
72060;SDS011;59925;52.136;5.420;2023-11-19T00:47:34;14.10;;;2.40;;
72060;SDS011;59925;52.136;5.420;2023-11-19T00:50:02;14.95;;;2.40;;
72060;SDS011;59925;52.136;5.420;2023-11-19T00:52:29;20.48;;;3.00;;
72060;SDS011;59925;52.136;5.420;2023-11-19T00:54:56;20.50;;;2.65;;
72060;SDS011;59925;52.136;5.420;2023-11-19T00:57:23;12.20;;;2.20;;
72060;SDS011;59925;52.136;5.420;2023-11-19T00:59:50;19.35;;;2.75;;
72060;SDS011;59925;52.136;5.420;2023-11-19T01:02:17;15.55;;;2.10;;
72060;SDS011;59925;52.136;5.420;2023-11-19T01:04:43;15.23;;;2.33;;
72060;SDS011;59925;52.136;5.420;2023-11-19T01:07:10;15.75;;;2.50;;
72060;SDS011;59925;52.136;5.420;2023-11-19T01:09:41;17.87;;;2.73;;
72060;SDS011;59925;52.136;5.420;2023-11-19T01:12:08;21.75;;;3.92;;
72060;SDS011;59925;52.136;5.420;2023-11-19T01:14:37;18.23;;;3.80;;
72060;SDS011;59925;52.136;5.420;2023-11-19T01:17:04;21.50;;;2.20;;
72060;SDS011;59925;52.136;5.420;2023-11-19T01:19:31;17.60;;;1.90;;
72060;SDS011;59925;52.136;5.420;2023-11-19T01:21:57;22.40;;;2.70;;
72060;SDS011;59925;52.136;5.420;2023-11-19T01:24:24;19.65;;;2.60;;
72060;SDS011;59925;52.136;5.420;2023-11-19T01:26:54;21.92;;;2.85;;
72060;SDS011;59925;52.136;5.420;2023-11-19T01:29:21;21.73;;;2.53;;
72060;SDS011;59925;52.136;5.420;2023-11-19T01:31:47;23.95;;;3.08;;
72060;SDS011;59925;52.136;5.420;2023-11-19T01:34:14;25.33;;;3.00;;
72060;SDS011;59925;52.136;5.420;2023-11-19T01:36:41;18.73;;;2.85;;
72060;SDS011;59925;52.136;5.420;2023-11-19T01:39:07;18.95;;;2.00;;
72060;SDS011;59925;52.136;5.420;2023-11-19T01:41:37;25.42;;;2.83;;
72060;SDS011;59925;52.136;5.420;2023-11-19T01:44:07;22.05;;;2.80;;
72060;SDS011;59925;52.136;5.420;2023-11-19T01:46:33;19.43;;;2.40;;
72060;SDS011;59925;52.136;5.420;2023-11-19T01:49:02;19.35;;;2.42;;
72060;SDS011;59925;52.136;5.420;2023-11-19T01:51:29;17.40;;;2.20;;
72060;SDS011;59925;52.136;5.420;2023-11-19T01:53:55;18.63;;;2.60;;
72060;SDS011;59925;52.136;5.420;2023-11-19T01:56:23;23.77;;;2.55;;
72060;SDS011;59925;52.136;5.420;2023-11-19T01:58:51;22.10;;;3.17;;
72060;SDS011;59925;52.136;5.420;2023-11-19T02:01:20;27.05;;;3.03;;
72060;SDS011;59925;52.136;5.420;2023-11-19T02:03:47;29.70;;;4.13;;
72060;SDS011;59925;52.136;5.420;2023-11-19T02:06:14;30.52;;;2.78;;
72060;SDS011;59925;52.136;5.420;2023-11-19T02:08:59;24.08;;;3.05;;
72060;SDS011;59925;52.136;5.420;2023-11-19T02:11:26;24.00;;;2.30;;
72060;SDS011;59925;52.136;5.420;2023-11-19T02:13:55;20.38;;;1.95;;
72060;SDS011;59925;52.136;5.420;2023-11-19T02:16:23;29.63;;;3.55;;
72060;SDS011;59925;52.136;5.420;2023-11-19T02:18:50;22.85;;;2.80;;
72060;SDS011;59925;52.136;5.420;2023-11-19T02:21:16;33.85;;;3.20;;
72060;SDS011;59925;52.136;5.420;2023-11-19T02:23:45;19.57;;;3.17;;
72060;SDS011;59925;52.136;5.420;2023-11-19T02:29:52;26.60;;;2.40;;
72060;SDS011;59925;52.136;5.420;2023-11-19T02:32:19;19.85;;;3.28;;
72060;SDS011;59925;52.136;5.420;2023-11-19T02:34:46;20.73;;;2.80;;
72060;SDS011;59925;52.136;5.420;2023-11-19T02:37:13;26.80;;;2.97;;
72060;SDS011;59925;52.136;5.420;2023-11-19T02:39:40;25.05;;;2.97;;
72060;SDS011;59925;52.136;5.420;2023-11-19T02:42:08;21.15;;;3.10;;
72060;SDS011;59925;52.136;5.420;2023-11-19T02:44:34;30.00;;;3.50;;
72060;SDS011;59925;52.136;5.420;2023-11-19T02:47:01;27.25;;;3.20;;
72060;SDS011;59925;52.136;5.420;2023-11-19T02:49:29;36.07;;;3.67;;
72060;SDS011;59925;52.136;5.420;2023-11-19T02:51:55;31.98;;;2.88;;
72060;SDS011;59925;52.136;5.420;2023-11-19T02:54:22;24.55;;;3.35;;
72060;SDS011;59925;52.136;5.420;2023-11-19T02:56:53;25.95;;;3.20;;
72060;SDS011;59925;52.136;5.420;2023-11-19T02:59:25;26.55;;;2.88;;
72060;SDS011;59925;52.136;5.420;2023-11-19T03:02:05;25.37;;;2.87;;
72060;SDS011;59925;52.136;5.420;2023-11-19T03:04:38;22.88;;;3.15;;
72060;SDS011;59925;52.136;5.420;2023-11-19T03:07:08;32.58;;;3.78;;
72060;SDS011;59925;52.136;5.420;2023-11-19T03:09:35;31.30;;;3.28;;
72060;SDS011;59925;52.136;5.420;2023-11-19T03:12:02;30.13;;;3.55;;
72060;SDS011;59925;52.136;5.420;2023-11-19T03:14:28;31.70;;;3.63;;
72060;SDS011;59925;52.136;5.420;2023-11-19T03:17:09;32.58;;;3.92;;
72060;SDS011;59925;52.136;5.420;2023-11-19T03:19:36;26.08;;;2.83;;
72060;SDS011;59925;52.136;5.420;2023-11-19T03:22:03;27.83;;;4.28;;
72060;SDS011;59925;52.136;5.420;2023-11-19T03:24:30;29.08;;;3.30;;
72060;SDS011;59925;52.136;5.420;2023-11-19T03:26:57;35.70;;;4.00;;
72060;SDS011;59925;52.136;5.420;2023-11-19T03:29:23;32.25;;;3.75;;
72060;SDS011;59925;52.136;5.420;2023-11-19T03:31:49;32.47;;;3.20;;
72060;SDS011;59925;52.136;5.420;2023-11-19T03:40:21;26.20;;;4.10;;
72060;SDS011;59925;52.136;5.420;2023-11-19T03:42:48;27.80;;;3.53;;
72060;SDS011;59925;52.136;5.420;2023-11-19T03:45:15;31.83;;;3.70;;
72060;SDS011;59925;52.136;5.420;2023-11-19T03:47:42;31.60;;;4.15;;
72060;SDS011;59925;52.136;5.420;2023-11-19T03:50:08;28.42;;;2.88;;
72060;SDS011;59925;52.136;5.420;2023-11-19T03:52:35;20.47;;;2.90;;
72060;SDS011;59925;52.136;5.420;2023-11-19T03:55:09;36.65;;;3.92;;
72060;SDS011;59925;52.136;5.420;2023-11-19T03:57:36;32.83;;;3.70;;
72060;SDS011;59925;52.136;5.420;2023-11-19T04:00:02;28.30;;;3.78;;
72060;SDS011;59925;52.136;5.420;2023-11-19T04:02:36;25.95;;;2.80;;
72060;SDS011;59925;52.136;5.420;2023-11-19T04:05:03;29.13;;;3.00;;
72060;SDS011;59925;52.136;5.420;2023-11-19T04:07:31;35.63;;;3.15;;
72060;SDS011;59925;52.136;5.420;2023-11-19T04:09:58;31.45;;;4.60;;
72060;SDS011;59925;52.136;5.420;2023-11-19T04:12:26;29.48;;;3.50;;
72060;SDS011;59925;52.136;5.420;2023-11-19T04:14:52;37.83;;;3.50;;
72060;SDS011;59925;52.136;5.420;2023-11-19T04:17:21;26.30;;;2.63;;
72060;SDS011;59925;52.136;5.420;2023-11-19T04:19:49;28.65;;;3.20;;
72060;SDS011;59925;52.136;5.420;2023-11-19T04:22:16;32.70;;;4.28;;
72060;SDS011;59925;52.136;5.420;2023-11-19T04:24:43;22.85;;;2.92;;
72060;SDS011;59925;52.136;5.420;2023-11-19T04:27:12;20.33;;;2.92;;
72060;SDS011;59925;52.136;5.420;2023-11-19T04:29:38;31.80;;;3.60;;
72060;SDS011;59925;52.136;5.420;2023-11-19T04:38:07;29.60;;;3.28;;
72060;SDS011;59925;52.136;5.420;2023-11-19T04:40:34;24.17;;;3.08;;
72060;SDS011;59925;52.136;5.420;2023-11-19T04:43:00;31.37;;;3.53;;
72060;SDS011;59925;52.136;5.420;2023-11-19T04:45:27;29.20;;;2.88;;
72060;SDS011;59925;52.136;5.420;2023-11-19T04:47:54;27.67;;;3.30;;
72060;SDS011;59925;52.136;5.420;2023-11-19T04:50:20;32.78;;;3.47;;
72060;SDS011;59925;52.136;5.420;2023-11-19T04:52:47;34.15;;;3.65;;
72060;SDS011;59925;52.136;5.420;2023-11-19T04:55:14;26.97;;;2.90;;
72060;SDS011;59925;52.136;5.420;2023-11-19T04:57:41;30.50;;;3.03;;
72060;SDS011;59925;52.136;5.420;2023-11-19T05:00:07;39.90;;;3.67;;
72060;SDS011;59925;52.136;5.420;2023-11-19T05:02:37;27.50;;;3.25;;
72060;SDS011;59925;52.136;5.420;2023-11-19T05:05:04;32.45;;;3.97;;
72060;SDS011;59925;52.136;5.420;2023-11-19T05:07:32;32.37;;;3.60;;
72060;SDS011;59925;52.136;5.420;2023-11-19T05:09:58;33.47;;;3.28;;
72060;SDS011;59925;52.136;5.420;2023-11-19T05:12:25;30.50;;;3.40;;
72060;SDS011;59925;52.136;5.420;2023-11-19T05:14:51;29.90;;;3.97;;
72060;SDS011;59925;52.136;5.420;2023-11-19T05:17:18;33.30;;;3.72;;
72060;SDS011;59925;52.136;5.420;2023-11-19T05:19:45;35.07;;;4.20;;
72060;SDS011;59925;52.136;5.420;2023-11-19T05:22:13;29.58;;;3.60;;
72060;SDS011;59925;52.136;5.420;2023-11-19T05:24:40;36.20;;;3.80;;
72060;SDS011;59925;52.136;5.420;2023-11-19T05:27:07;28.67;;;3.58;;
72060;SDS011;59925;52.136;5.420;2023-11-19T05:29:34;25.58;;;3.13;;
72060;SDS011;59925;52.136;5.420;2023-11-19T05:32:01;27.23;;;2.47;;
72060;SDS011;59925;52.136;5.420;2023-11-19T05:37:08;27.52;;;3.17;;
72060;SDS011;59925;52.136;5.420;2023-11-19T05:39:37;28.27;;;3.28;;
72060;SDS011;59925;52.136;5.420;2023-11-19T05:42:03;24.35;;;3.35;;
72060;SDS011;59925;52.136;5.420;2023-11-19T05:44:30;30.20;;;4.27;;
72060;SDS011;59925;52.136;5.420;2023-11-19T05:46:57;35.20;;;3.70;;
72060;SDS011;59925;52.136;5.420;2023-11-19T05:49:24;20.55;;;3.10;;
72060;SDS011;59925;52.136;5.420;2023-11-19T05:51:50;31.77;;;3.45;;
72060;SDS011;59925;52.136;5.420;2023-11-19T05:54:17;29.60;;;3.38;;
72060;SDS011;59925;52.136;5.420;2023-11-19T05:56:47;26.17;;;2.97;;
72060;SDS011;59925;52.136;5.420;2023-11-19T05:59:15;23.80;;;2.70;;
72060;SDS011;59925;52.136;5.420;2023-11-19T06:01:43;39.40;;;4.28;;
72060;SDS011;59925;52.136;5.420;2023-11-19T06:04:10;37.00;;;3.70;;
72060;SDS011;59925;52.136;5.420;2023-11-19T06:06:37;29.63;;;3.60;;
72060;SDS011;59925;52.136;5.420;2023-11-19T06:09:03;35.37;;;4.10;;
72060;SDS011;59925;52.136;5.420;2023-11-19T06:11:34;31.95;;;4.03;;
72060;SDS011;59925;52.136;5.420;2023-11-19T06:14:02;30.10;;;3.85;;
72060;SDS011;59925;52.136;5.420;2023-11-19T06:16:31;28.48;;;2.80;;
72060;SDS011;59925;52.136;5.420;2023-11-19T06:18:58;26.27;;;3.25;;
72060;SDS011;59925;52.136;5.420;2023-11-19T06:21:25;32.47;;;3.93;;
72060;SDS011;59925;52.136;5.420;2023-11-19T06:23:52;19.40;;;2.70;;
72060;SDS011;59925;52.136;5.420;2023-11-19T06:26:19;31.35;;;3.25;;
72060;SDS011;59925;52.136;5.420;2023-11-19T06:28:48;37.83;;;4.03;;
72060;SDS011;59925;52.136;5.420;2023-11-19T06:31:14;28.42;;;3.70;;
72060;SDS011;59925;52.136;5.420;2023-11-19T06:33:42;25.63;;;2.77;;
72060;SDS011;59925;52.136;5.420;2023-11-19T06:36:09;33.90;;;3.88;;
72060;SDS011;59925;52.136;5.420;2023-11-19T06:38:36;24.52;;;2.92;;
72060;SDS011;59925;52.136;5.420;2023-11-19T06:41:05;29.20;;;3.05;;
72060;SDS011;59925;52.136;5.420;2023-11-19T06:43:33;26.52;;;3.08;;
72060;SDS011;59925;52.136;5.420;2023-11-19T06:46:02;26.63;;;2.73;;
72060;SDS011;59925;52.136;5.420;2023-11-19T06:48:32;27.10;;;3.03;;
72060;SDS011;59925;52.136;5.420;2023-11-19T06:50:59;28.88;;;3.22;;
72060;SDS011;59925;52.136;5.420;2023-11-19T06:53:26;25.55;;;3.20;;
72060;SDS011;59925;52.136;5.420;2023-11-19T06:55:54;26.88;;;2.83;;
72060;SDS011;59925;52.136;5.420;2023-11-19T06:58:21;34.07;;;3.63;;
72060;SDS011;59925;52.136;5.420;2023-11-19T07:00:48;34.95;;;3.03;;
72060;SDS011;59925;52.136;5.420;2023-11-19T07:03:16;25.67;;;3.30;;
72060;SDS011;59925;52.136;5.420;2023-11-19T07:05:43;28.73;;;3.20;;
72060;SDS011;59925;52.136;5.420;2023-11-19T07:08:10;29.30;;;3.35;;
72060;SDS011;59925;52.136;5.420;2023-11-19T07:10:37;30.77;;;3.00;;
72060;SDS011;59925;52.136;5.420;2023-11-19T07:13:04;24.20;;;3.08;;
72060;SDS011;59925;52.136;5.420;2023-11-19T07:15:32;35.63;;;3.40;;
72060;SDS011;59925;52.136;5.420;2023-11-19T07:17:59;27.25;;;3.33;;
72060;SDS011;59925;52.136;5.420;2023-11-19T07:20:28;29.88;;;4.00;;
72060;SDS011;59925;52.136;5.420;2023-11-19T07:22:55;29.17;;;3.20;;
72060;SDS011;59925;52.136;5.420;2023-11-19T07:25:24;37.33;;;4.05;;
72060;SDS011;59925;52.136;5.420;2023-11-19T07:27:51;56.83;;;4.28;;
72060;SDS011;59925;52.136;5.420;2023-11-19T07:30:18;35.97;;;2.95;;
72060;SDS011;59925;52.136;5.420;2023-11-19T07:32:45;27.10;;;2.88;;
72060;SDS011;59925;52.136;5.420;2023-11-19T07:35:12;29.60;;;3.30;;
72060;SDS011;59925;52.136;5.420;2023-11-19T07:37:38;29.88;;;2.70;;
72060;SDS011;59925;52.136;5.420;2023-11-19T07:40:05;27.67;;;3.17;;
72060;SDS011;59925;52.136;5.420;2023-11-19T07:42:33;37.05;;;4.55;;
72060;SDS011;59925;52.136;5.420;2023-11-19T07:44:59;28.52;;;3.65;;
72060;SDS011;59925;52.136;5.420;2023-11-19T07:47:26;25.77;;;3.03;;
72060;SDS011;59925;52.136;5.420;2023-11-19T07:49:52;28.10;;;3.05;;
72060;SDS011;59925;52.136;5.420;2023-11-19T07:52:19;23.02;;;2.80;;
72060;SDS011;59925;52.136;5.420;2023-11-19T07:54:47;30.95;;;3.90;;
72060;SDS011;59925;52.136;5.420;2023-11-19T07:57:13;23.52;;;3.17;;
72060;SDS011;59925;52.136;5.420;2023-11-19T07:59:40;27.23;;;2.77;;
72060;SDS011;59925;52.136;5.420;2023-11-19T08:02:07;33.72;;;3.72;;
72060;SDS011;59925;52.136;5.420;2023-11-19T08:04:34;29.35;;;3.63;;
72060;SDS011;59925;52.136;5.420;2023-11-19T08:07:01;28.95;;;2.97;;
72060;SDS011;59925;52.136;5.420;2023-11-19T08:09:28;22.80;;;2.25;;
72060;SDS011;59925;52.136;5.420;2023-11-19T08:11:54;22.03;;;2.53;;
72060;SDS011;59925;52.136;5.420;2023-11-19T08:14:22;31.70;;;3.10;;
72060;SDS011;59925;52.136;5.420;2023-11-19T08:16:50;26.75;;;3.05;;
72060;SDS011;59925;52.136;5.420;2023-11-19T08:19:17;33.15;;;4.50;;
72060;SDS011;59925;52.136;5.420;2023-11-19T08:21:43;32.50;;;4.03;;
72060;SDS011;59925;52.136;5.420;2023-11-19T08:24:10;37.27;;;4.13;;
72060;SDS011;59925;52.136;5.420;2023-11-19T08:26:36;28.48;;;3.72;;
72060;SDS011;59925;52.136;5.420;2023-11-19T08:29:03;33.85;;;3.40;;
72060;SDS011;59925;52.136;5.420;2023-11-19T08:31:29;32.58;;;3.80;;
72060;SDS011;59925;52.136;5.420;2023-11-19T08:33:56;29.10;;;3.88;;
72060;SDS011;59925;52.136;5.420;2023-11-19T08:36:23;29.53;;;2.80;;
72060;SDS011;59925;52.136;5.420;2023-11-19T08:38:49;30.15;;;3.38;;
72060;SDS011;59925;52.136;5.420;2023-11-19T08:41:18;33.45;;;4.05;;
72060;SDS011;59925;52.136;5.420;2023-11-19T08:43:45;25.15;;;2.58;;
72060;SDS011;59925;52.136;5.420;2023-11-19T08:46:12;30.98;;;3.95;;
72060;SDS011;59925;52.136;5.420;2023-11-19T08:48:39;26.17;;;2.97;;
72060;SDS011;59925;52.136;5.420;2023-11-19T08:51:06;32.35;;;4.85;;
72060;SDS011;59925;52.136;5.420;2023-11-19T08:53:33;27.35;;;3.53;;
72060;SDS011;59925;52.136;5.420;2023-11-19T08:55:59;26.95;;;2.83;;
72060;SDS011;59925;52.136;5.420;2023-11-19T08:58:26;31.73;;;3.85;;
72060;SDS011;59925;52.136;5.420;2023-11-19T09:00:53;25.03;;;3.10;;
72060;SDS011;59925;52.136;5.420;2023-11-19T09:03:19;28.73;;;3.45;;
72060;SDS011;59925;52.136;5.420;2023-11-19T09:05:47;29.17;;;3.72;;
72060;SDS011;59925;52.136;5.420;2023-11-19T09:08:13;19.52;;;2.63;;
72060;SDS011;59925;52.136;5.420;2023-11-19T09:10:40;19.20;;;2.15;;
72060;SDS011;59925;52.136;5.420;2023-11-19T09:13:06;27.43;;;3.07;;
72060;SDS011;59925;52.136;5.420;2023-11-19T09:15:34;23.52;;;2.20;;
72060;SDS011;59925;52.136;5.420;2023-11-19T09:18:00;29.42;;;2.83;;
72060;SDS011;59925;52.136;5.420;2023-11-19T09:20:27;31.98;;;3.42;;
72060;SDS011;59925;52.136;5.420;2023-11-19T09:22:53;25.13;;;3.35;;
72060;SDS011;59925;52.136;5.420;2023-11-19T09:25:20;32.67;;;3.27;;
72060;SDS011;59925;52.136;5.420;2023-11-19T09:27:47;23.00;;;2.88;;
72060;SDS011;59925;52.136;5.420;2023-11-19T09:30:13;25.63;;;3.65;;
72060;SDS011;59925;52.136;5.420;2023-11-19T09:32:40;21.23;;;3.38;;
72060;SDS011;59925;52.136;5.420;2023-11-19T09:35:07;30.67;;;3.50;;
72060;SDS011;59925;52.136;5.420;2023-11-19T09:37:35;22.83;;;2.60;;
72060;SDS011;59925;52.136;5.420;2023-11-19T09:40:01;26.63;;;2.92;;
72060;SDS011;59925;52.136;5.420;2023-11-19T09:42:28;31.45;;;4.03;;
72060;SDS011;59925;52.136;5.420;2023-11-19T09:44:54;24.08;;;2.47;;
72060;SDS011;59925;52.136;5.420;2023-11-19T09:47:22;25.65;;;3.45;;
72060;SDS011;59925;52.136;5.420;2023-11-19T09:49:51;26.10;;;4.23;;
72060;SDS011;59925;52.136;5.420;2023-11-19T09:52:20;23.40;;;2.72;;
72060;SDS011;59925;52.136;5.420;2023-11-19T09:54:46;22.08;;;3.33;;
72060;SDS011;59925;52.136;5.420;2023-11-19T09:57:13;18.73;;;2.92;;
72060;SDS011;59925;52.136;5.420;2023-11-19T09:59:42;27.33;;;3.63;;
72060;SDS011;59925;52.136;5.420;2023-11-19T10:02:09;26.37;;;3.43;;
72060;SDS011;59925;52.136;5.420;2023-11-19T10:04:37;20.83;;;3.38;;
72060;SDS011;59925;52.136;5.420;2023-11-19T10:07:05;26.25;;;3.33;;
72060;SDS011;59925;52.136;5.420;2023-11-19T10:09:32;20.15;;;2.90;;
72060;SDS011;59925;52.136;5.420;2023-11-19T10:12:00;20.95;;;2.83;;
72060;SDS011;59925;52.136;5.420;2023-11-19T10:14:28;22.10;;;3.20;;
72060;SDS011;59925;52.136;5.420;2023-11-19T10:16:57;22.83;;;3.13;;
72060;SDS011;59925;52.136;5.420;2023-11-19T10:19:24;26.40;;;3.42;;
72060;SDS011;59925;52.136;5.420;2023-11-19T10:21:51;29.58;;;3.45;;
72060;SDS011;59925;52.136;5.420;2023-11-19T10:24:28;20.90;;;2.20;;
72060;SDS011;59925;52.136;5.420;2023-11-19T10:26:59;21.77;;;2.67;;
72060;SDS011;59925;52.136;5.420;2023-11-19T10:29:26;21.95;;;3.13;;
72060;SDS011;59925;52.136;5.420;2023-11-19T10:31:56;24.50;;;3.50;;
72060;SDS011;59925;52.136;5.420;2023-11-19T10:34:43;25.55;;;3.28;;
72060;SDS011;59925;52.136;5.420;2023-11-19T10:37:26;24.08;;;2.75;;
72060;SDS011;59925;52.136;5.420;2023-11-19T10:39:54;28.63;;;3.10;;
72060;SDS011;59925;52.136;5.420;2023-11-19T10:42:21;24.98;;;2.75;;
72060;SDS011;59925;52.136;5.420;2023-11-19T10:44:48;27.10;;;2.50;;
72060;SDS011;59925;52.136;5.420;2023-11-19T10:47:16;26.05;;;3.30;;
72060;SDS011;59925;52.136;5.420;2023-11-19T10:49:45;30.25;;;3.40;;
72060;SDS011;59925;52.136;5.420;2023-11-19T10:52:12;19.53;;;3.13;;
72060;SDS011;59925;52.136;5.420;2023-11-19T10:54:44;25.38;;;3.35;;
72060;SDS011;59925;52.136;5.420;2023-11-19T10:57:18;24.27;;;3.67;;
72060;SDS011;59925;52.136;5.420;2023-11-19T10:59:48;26.67;;;2.95;;
72060;SDS011;59925;52.136;5.420;2023-11-19T11:02:19;18.77;;;2.75;;
72060;SDS011;59925;52.136;5.420;2023-11-19T11:04:49;23.20;;;2.90;;
72060;SDS011;59925;52.136;5.420;2023-11-19T11:07:16;21.83;;;2.65;;
72060;SDS011;59925;52.136;5.420;2023-11-19T11:09:52;29.83;;;3.13;;
72060;SDS011;59925;52.136;5.420;2023-11-19T11:12:20;23.08;;;2.80;;
72060;SDS011;59925;52.136;5.420;2023-11-19T11:14:50;21.02;;;2.97;;
72060;SDS011;59925;52.136;5.420;2023-11-19T11:17:19;19.00;;;2.90;;
72060;SDS011;59925;52.136;5.420;2023-11-19T11:19:50;22.60;;;3.00;;
72060;SDS011;59925;52.136;5.420;2023-11-19T11:22:17;21.52;;;2.75;;
72060;SDS011;59925;52.136;5.420;2023-11-19T11:25:07;21.73;;;2.80;;
72060;SDS011;59925;52.136;5.420;2023-11-19T11:36:10;22.83;;;3.55;;
72060;SDS011;59925;52.136;5.420;2023-11-19T11:38:45;20.13;;;3.17;;
72060;SDS011;59925;52.136;5.420;2023-11-19T11:41:19;22.85;;;2.83;;
72060;SDS011;59925;52.136;5.420;2023-11-19T11:43:49;20.00;;;2.20;;
72060;SDS011;59925;52.136;5.420;2023-11-19T11:49:00;23.30;;;3.03;;
72060;SDS011;59925;52.136;5.420;2023-11-19T11:54:11;27.52;;;3.58;;
72060;SDS011;59925;52.136;5.420;2023-11-19T11:57:11;21.83;;;2.70;;
72060;SDS011;59925;52.136;5.420;2023-11-19T11:59:45;24.58;;;2.80;;
72060;SDS011;59925;52.136;5.420;2023-11-19T12:02:13;20.25;;;2.50;;
72060;SDS011;59925;52.136;5.420;2023-11-19T12:04:43;18.15;;;3.78;;
72060;SDS011;59925;52.136;5.420;2023-11-19T12:09:50;21.40;;;2.13;;
72060;SDS011;59925;52.136;5.420;2023-11-19T12:12:21;21.85;;;2.70;;
72060;SDS011;59925;52.136;5.420;2023-11-19T12:18:10;21.23;;;2.53;;
72060;SDS011;59925;52.136;5.420;2023-11-19T12:20:18;22.90;;;2.28;;
72060;SDS011;59925;52.136;5.420;2023-11-19T12:22:50;20.20;;;2.83;;
72060;SDS011;59925;52.136;5.420;2023-11-19T12:25:17;19.50;;;2.42;;
72060;SDS011;59925;52.136;5.420;2023-11-19T12:27:46;20.08;;;2.90;;
72060;SDS011;59925;52.136;5.420;2023-11-19T12:30:17;18.35;;;3.10;;
72060;SDS011;59925;52.136;5.420;2023-11-19T12:32:49;18.20;;;3.03;;
72060;SDS011;59925;52.136;5.420;2023-11-19T12:35:17;18.13;;;2.07;;
72060;SDS011;59925;52.136;5.420;2023-11-19T12:40:18;14.27;;;2.28;;
72060;SDS011;59925;52.136;5.420;2023-11-19T12:42:46;16.17;;;1.83;;
72060;SDS011;59925;52.136;5.420;2023-11-19T12:45:13;15.32;;;2.72;;
72060;SDS011;59925;52.136;5.420;2023-11-19T12:47:40;17.27;;;2.17;;
72060;SDS011;59925;52.136;5.420;2023-11-19T12:50:07;19.63;;;2.50;;
72060;SDS011;59925;52.136;5.420;2023-11-19T12:52:35;17.80;;;2.33;;
72060;SDS011;59925;52.136;5.420;2023-11-19T12:55:46;19.27;;;3.03;;
72060;SDS011;59925;52.136;5.420;2023-11-19T12:57:56;18.67;;;2.42;;
72060;SDS011;59925;52.136;5.420;2023-11-19T13:00:24;21.00;;;2.53;;
72060;SDS011;59925;52.136;5.420;2023-11-19T13:02:53;14.23;;;2.30;;
72060;SDS011;59925;52.136;5.420;2023-11-19T13:05:22;17.13;;;2.70;;
72060;SDS011;59925;52.136;5.420;2023-11-19T13:10:27;21.02;;;2.30;;
72060;SDS011;59925;52.136;5.420;2023-11-19T13:13:00;22.13;;;2.80;;
72060;SDS011;59925;52.136;5.420;2023-11-19T13:15:27;18.48;;;2.60;;
72060;SDS011;59925;52.136;5.420;2023-11-19T13:17:55;20.13;;;2.47;;
72060;SDS011;59925;52.136;5.420;2023-11-19T13:20:22;21.55;;;3.30;;
72060;SDS011;59925;52.136;5.420;2023-11-19T13:22:55;19.27;;;2.45;;
72060;SDS011;59925;52.136;5.420;2023-11-19T13:25:26;24.57;;;2.97;;
72060;SDS011;59925;52.136;5.420;2023-11-19T13:27:54;15.77;;;2.28;;
72060;SDS011;59925;52.136;5.420;2023-11-19T13:30:22;19.45;;;2.45;;
72060;SDS011;59925;52.136;5.420;2023-11-19T13:32:52;20.67;;;2.70;;
72060;SDS011;59925;52.136;5.420;2023-11-19T13:35:22;21.05;;;2.85;;
72060;SDS011;59925;52.136;5.420;2023-11-19T13:37:49;25.00;;;2.77;;
72060;SDS011;59925;52.136;5.420;2023-11-19T13:40:16;27.38;;;3.47;;
72060;SDS011;59925;52.136;5.420;2023-11-19T13:42:42;26.58;;;2.70;;
72060;SDS011;59925;52.136;5.420;2023-11-19T13:45:14;21.55;;;2.88;;
72060;SDS011;59925;52.136;5.420;2023-11-19T13:47:43;21.50;;;2.42;;
72060;SDS011;59925;52.136;5.420;2023-11-19T13:50:14;15.70;;;2.27;;
72060;SDS011;59925;52.136;5.420;2023-11-19T13:52:44;23.08;;;2.60;;
72060;SDS011;59925;52.136;5.420;2023-11-19T13:55:13;19.08;;;2.30;;
72060;SDS011;59925;52.136;5.420;2023-11-19T13:57:41;27.30;;;2.63;;
72060;SDS011;59925;52.136;5.420;2023-11-19T14:00:09;17.58;;;2.47;;
72060;SDS011;59925;52.136;5.420;2023-11-19T14:02:40;19.80;;;2.37;;
72060;SDS011;59925;52.136;5.420;2023-11-19T14:05:07;21.67;;;2.58;;
72060;SDS011;59925;52.136;5.420;2023-11-19T14:07:34;22.60;;;2.50;;
72060;SDS011;59925;52.136;5.420;2023-11-19T14:10:01;12.93;;;1.80;;
72060;SDS011;59925;52.136;5.420;2023-11-19T14:12:29;14.65;;;1.98;;
72060;SDS011;59925;52.136;5.420;2023-11-19T14:14:56;22.87;;;2.33;;
72060;SDS011;59925;52.136;5.420;2023-11-19T14:17:22;17.13;;;2.13;;
72060;SDS011;59925;52.136;5.420;2023-11-19T14:19:49;16.83;;;1.83;;
72060;SDS011;59925;52.136;5.420;2023-11-19T14:22:15;14.90;;;2.15;;
72060;SDS011;59925;52.136;5.420;2023-11-19T14:24:41;17.50;;;1.65;;
72060;SDS011;59925;52.136;5.420;2023-11-19T14:27:09;17.33;;;1.93;;
72060;SDS011;59925;52.136;5.420;2023-11-19T14:29:36;20.05;;;2.13;;
72060;SDS011;59925;52.136;5.420;2023-11-19T14:32:03;23.80;;;2.35;;
72060;SDS011;59925;52.136;5.420;2023-11-19T14:34:30;16.75;;;2.20;;
72060;SDS011;59925;52.136;5.420;2023-11-19T14:36:58;20.27;;;2.40;;
72060;SDS011;59925;52.136;5.420;2023-11-19T14:39:25;15.77;;;2.20;;
72060;SDS011;59925;52.136;5.420;2023-11-19T14:41:52;19.35;;;2.05;;
72060;SDS011;59925;52.136;5.420;2023-11-19T14:44:24;19.42;;;2.53;;
72060;SDS011;59925;52.136;5.420;2023-11-19T14:46:50;24.52;;;2.50;;
72060;SDS011;59925;52.136;5.420;2023-11-19T14:49:17;24.83;;;4.28;;
72060;SDS011;59925;52.136;5.420;2023-11-19T14:51:44;15.90;;;2.70;;
72060;SDS011;59925;52.136;5.420;2023-11-19T14:54:14;16.77;;;1.80;;
72060;SDS011;59925;52.136;5.420;2023-11-19T14:56:42;16.50;;;2.53;;
72060;SDS011;59925;52.136;5.420;2023-11-19T14:59:09;20.40;;;2.50;;
72060;SDS011;59925;52.136;5.420;2023-11-19T15:01:35;18.17;;;2.40;;
72060;SDS011;59925;52.136;5.420;2023-11-19T15:04:02;23.60;;;3.17;;
72060;SDS011;59925;52.136;5.420;2023-11-19T15:06:31;14.80;;;2.20;;
72060;SDS011;59925;52.136;5.420;2023-11-19T15:09:00;22.63;;;2.17;;
72060;SDS011;59925;52.136;5.420;2023-11-19T15:11:27;19.42;;;2.17;;
72060;SDS011;59925;52.136;5.420;2023-11-19T15:13:53;23.27;;;3.20;;
72060;SDS011;59925;52.136;5.420;2023-11-19T15:16:20;23.20;;;2.57;;
72060;SDS011;59925;52.136;5.420;2023-11-19T15:18:52;20.65;;;2.47;;
72060;SDS011;59925;52.136;5.420;2023-11-19T15:21:18;21.23;;;2.70;;